Aviation Digital Data Service (ADDS)

Output produced by TAFs form (1303 UTC 30 July 2016)
found at http://aviationweather.gov/adds/tafs/
 
KELP 301131Z 3012/3112 14009KT P6SM FEW150 SCT250 
     FM301500 14008KT P6SM SCT080 SCT100 SCT250 
     FM310400 15005KT P6SM FEW080 SCT100 BKN220